createdAt,value
2022-09-12T00:02:13.291Z,98528.61
2022-09-12T00:08:22.005Z,98530.88
2022-09-12T00:14:41.968Z,98529.17
2022-09-12T00:21:10.876Z,98526.89
2022-09-12T00:26:50.719Z,98529.77
2022-09-12T00:32:32.646Z,98533.70
2022-09-12T00:38:50.109Z,98531.54
2022-09-12T00:45:14.970Z,98529.35
2022-09-12T00:51:38.522Z,98525.84
2022-09-12T00:58:07.529Z,98530.24
2022-09-12T01:04:14.893Z,98533.03
2022-09-12T01:10:15.996Z,98532.75
2022-09-12T01:16:24.675Z,98534.13
2022-09-12T01:22:50.109Z,98537.45
2022-09-12T01:30:08.531Z,98528.16
2022-09-12T01:36:58.401Z,98524.64
2022-09-12T01:43:25.698Z,98528.84
2022-09-12T01:50:11.987Z,98533.65
2022-09-12T01:56:25.895Z,98536.49
2022-09-12T02:02:20.200Z,98534.77
2022-09-12T02:08:32.354Z,98534.02
2022-09-12T02:14:37.047Z,98533.48
2022-09-12T02:20:56.400Z,98538.16
2022-09-12T02:27:10.036Z,98536.15
2022-09-12T02:33:37.761Z,98538.02
2022-09-12T02:39:52.821Z,98534.81
2022-09-12T02:46:14.107Z,98530.19
2022-09-12T02:52:33.672Z,98528.84
2022-09-12T02:58:58.036Z,98532.00
2022-09-12T03:05:25.440Z,98538.32
2022-09-12T03:12:18.516Z,98541.98
2022-09-12T03:18:43.321Z,98541.18
2022-09-12T03:25:37.296Z,98542.58
2022-09-12T03:32:18.944Z,98550.76
2022-09-12T03:39:06.812Z,98553.83
2022-09-12T03:45:32.659Z,98553.63
2022-09-12T03:51:31.129Z,98548.02
2022-09-12T03:56:45.715Z,98561.11
2022-09-12T04:02:36.504Z,98564.10
2022-09-12T04:08:12.295Z,98564.14
2022-09-12T04:13:46.872Z,98566.50
2022-09-12T04:19:42.339Z,98569.14
2022-09-12T04:25:37.908Z,98564.83
2022-09-12T04:31:42.001Z,98572.01
2022-09-12T04:38:07.893Z,98576.10
2022-09-12T04:44:03.222Z,98579.16
2022-09-12T04:50:19.344Z,98583.60
2022-09-12T04:56:19.751Z,98588.17
2022-09-12T05:02:20.545Z,98587.09
2022-09-12T05:07:38.214Z,98595.48
2022-09-12T05:13:26.074Z,98597.84
2022-09-12T05:19:27.997Z,98608.88
2022-09-12T05:25:12.309Z,98617.86
2022-09-12T05:31:01.167Z,98622.36
2022-09-12T05:36:58.317Z,98624.05
2022-09-12T05:42:54.925Z,98629.59
2022-09-12T05:48:39.614Z,98631.74
2022-09-12T05:54:20.823Z,98630.84
2022-09-12T06:00:13.951Z,98630.81
2022-09-12T06:05:56.728Z,98628.34
2022-09-12T06:11:50.937Z,98629.91
2022-09-12T06:18:00.037Z,98636.59
2022-09-12T06:24:12.027Z,98644.45
2022-09-12T06:29:21.992Z,98645.80
2022-09-12T06:34:38.175Z,98647.28
2022-09-12T06:39:57.487Z,98651.83
2022-09-12T06:45:31.499Z,98655.77
2022-09-12T06:51:06.217Z,98652.23
2022-09-12T06:56:48.262Z,98656.79
2022-09-12T07:02:20.171Z,98660.03
2022-09-12T07:08:12.879Z,98658.63
2022-09-12T07:13:45.160Z,98664.17
2022-09-12T07:19:05.648Z,98669.36
2022-09-12T07:24:12.016Z,98679.31
2022-09-12T07:29:36.885Z,98676.00
2022-09-12T07:34:50.073Z,98681.21
2022-09-12T07:40:13.230Z,98683.58
2022-09-12T07:46:01.612Z,98685.52
2022-09-12T07:51:38.422Z,98688.39
2022-09-12T07:57:22.423Z,98688.43
2022-09-12T08:02:50.708Z,98691.19
2022-09-12T08:08:27.717Z,98687.73
2022-09-12T08:14:17.842Z,98691.19
2022-09-12T08:20:25.361Z,98696.21
2022-09-12T08:26:08.592Z,98697.71
2022-09-12T08:32:08.386Z,98696.38
2022-09-12T08:37:13.612Z,98694.26
2022-09-12T08:43:18.042Z,98693.52
2022-09-12T08:48:34.308Z,98693.92
2022-09-12T08:54:04.148Z,98697.55
2022-09-12T08:59:49.395Z,98695.89
2022-09-12T09:05:33.772Z,98692.85
2022-09-12T09:11:46.764Z,98697.41
2022-09-12T09:17:08.836Z,98688.58
2022-09-12T09:23:15.988Z,98695.14
2022-09-12T09:29:02.563Z,98690.95
2022-09-12T09:34:48.605Z,98699.34
2022-09-12T09:40:27.015Z,98695.10
2022-09-12T09:46:12.363Z,98693.86
2022-09-12T09:51:42.032Z,98692.82
2022-09-12T09:57:12.474Z,98689.15
2022-09-12T10:02:38.839Z,98685.64
2022-09-12T10:07:50.374Z,98686.37
2022-09-12T10:13:18.000Z,98683.48
2022-09-12T10:18:42.551Z,98689.52
2022-09-12T10:24:00.204Z,98691.69
2022-09-12T10:29:35.316Z,98692.39
2022-09-12T10:34:55.099Z,98686.92
2022-09-12T10:40:20.783Z,98693.56
2022-09-12T10:45:47.260Z,98689.39
2022-09-12T10:51:07.007Z,98693.16
2022-09-12T10:56:33.758Z,98693.23
2022-09-12T11:02:34.697Z,98698.75
2022-09-12T11:09:18.635Z,98697.42
2022-09-12T11:15:30.389Z,98697.35
2022-09-12T11:21:39.980Z,98703.80
2022-09-12T11:27:18.545Z,98697.62
2022-09-12T11:33:58.807Z,98689.98
2022-09-12T11:39:45.042Z,98689.00
2022-09-12T11:44:57.755Z,98691.23
2022-09-12T11:50:26.471Z,98702.59
2022-09-12T11:55:44.018Z,98709.30
2022-09-12T12:01:03.335Z,98713.42
2022-09-12T12:06:42.016Z,98715.30
2022-09-12T12:11:57.148Z,98713.23
2022-09-12T12:17:34.771Z,98704.13
2022-09-12T12:22:37.475Z,98706.48
2022-09-12T12:27:55.945Z,98705.23
2022-09-12T12:33:30.215Z,98707.89
2022-09-12T12:38:52.528Z,98706.42
2022-09-12T12:43:57.885Z,98697.13
2022-09-12T12:49:24.739Z,98694.52
2022-09-12T12:54:27.219Z,98690.30
2022-09-12T12:59:32.507Z,98684.20
2022-09-12T13:04:35.185Z,98680.30
2022-09-12T13:10:07.037Z,98677.91
2022-09-12T13:16:06.146Z,98669.25
2022-09-12T13:21:23.959Z,98669.55
2022-09-12T13:26:36.273Z,98665.49
2022-09-12T13:32:00.840Z,98666.79
2022-09-12T13:37:51.427Z,98666.92
2022-09-12T13:43:57.300Z,98666.05
2022-09-12T13:49:33.577Z,98665.59
2022-09-12T13:54:48.586Z,98661.77
2022-09-12T13:59:57.628Z,98664.30
2022-09-12T14:05:10.256Z,98661.23
2022-09-12T14:10:38.078Z,98660.08
2022-09-12T14:15:45.470Z,98657.53
2022-09-12T14:20:54.220Z,98654.53
2022-09-12T14:26:08.361Z,98653.93
2022-09-12T14:32:09.770Z,98655.02
2022-09-12T14:37:25.340Z,98647.84
2022-09-12T14:42:50.456Z,98644.60
2022-09-12T14:48:21.416Z,98642.55
2022-09-12T14:53:45.488Z,98640.07
2022-09-12T15:00:20.258Z,98640.05
2022-09-12T15:05:26.039Z,98637.41
2022-09-12T15:11:21.599Z,98636.80
2022-09-12T15:17:03.419Z,98632.11
2022-09-12T15:22:14.196Z,98633.08
2022-09-12T15:27:25.137Z,98637.61
2022-09-12T15:32:31.103Z,98639.17
2022-09-12T15:38:17.100Z,98646.21
2022-09-12T15:43:49.638Z,98647.73
2022-09-12T15:49:23.639Z,98650.67
2022-09-12T15:54:28.588Z,98649.59
2022-09-12T15:59:42.243Z,98649.34
2022-09-12T16:05:22.564Z,98647.14
2022-09-12T16:10:49.726Z,98646.30
2022-09-12T16:16:17.621Z,98644.05
2022-09-12T16:21:40.007Z,98640.46
2022-09-12T16:27:17.803Z,98644.54
2022-09-12T16:32:47.558Z,98641.64
2022-09-12T16:38:04.249Z,98639.14
2022-09-12T16:43:31.331Z,98637.16
2022-09-12T16:49:13.164Z,98638.86
2022-09-12T16:55:25.689Z,98635.84
2022-09-12T17:00:47.922Z,98643.73
2022-09-12T17:06:15.870Z,98637.88
2022-09-12T17:11:45.225Z,98639.99
2022-09-12T17:17:07.364Z,98638.79
2022-09-12T17:22:38.671Z,98640.51
2022-09-12T17:28:05.850Z,98641.06
2022-09-12T17:33:25.080Z,98646.52
2022-09-12T17:39:03.937Z,98647.62
2022-09-12T17:44:53.014Z,98654.32
2022-09-12T17:50:30.873Z,98667.09
2022-09-12T17:56:05.431Z,98658.82
2022-09-12T18:01:52.649Z,98660.92
2022-09-12T18:08:17.167Z,98661.55
2022-09-12T18:13:26.945Z,98662.73
2022-09-12T18:18:37.771Z,98665.73
2022-09-12T18:24:25.514Z,98669.86
2022-09-12T18:30:21.018Z,98675.17
2022-09-12T18:35:39.309Z,98681.67
2022-09-12T18:41:57.123Z,98677.17
2022-09-12T18:47:30.642Z,98677.86
2022-09-12T18:52:59.518Z,98674.52
2022-09-12T18:58:02.181Z,98672.19
2022-09-12T19:04:20.338Z,98673.70
2022-09-12T19:10:43.720Z,98668.46
2022-09-12T19:16:27.362Z,98670.91
2022-09-12T19:21:56.165Z,98669.59
2022-09-12T19:27:13.116Z,98660.38
2022-09-12T19:33:23.665Z,98660.71
2022-09-12T19:39:07.526Z,98658.55
2022-09-12T19:44:55.977Z,98659.63
2022-09-12T19:50:12.562Z,98655.45
2022-09-12T19:55:15.022Z,98652.23
2022-09-12T20:00:48.955Z,98645.48
2022-09-12T20:06:06.934Z,98643.13
2022-09-12T20:11:10.611Z,98638.89
2022-09-12T20:16:33.563Z,98644.39
2022-09-12T20:22:10.752Z,98636.61
2022-09-12T20:27:12.995Z,98631.52
2022-09-12T20:32:23.965Z,98625.67
2022-09-12T20:37:41.149Z,98621.95
2022-09-12T20:42:54.637Z,98622.87
2022-09-12T20:48:09.915Z,98622.36
2022-09-12T20:53:45.665Z,98624.00
2022-09-12T20:59:06.216Z,98623.88
2022-09-12T21:04:54.094Z,98619.23
2022-09-12T21:10:47.037Z,98619.95
2022-09-12T21:17:07.726Z,98614.30
2022-09-12T21:23:41.215Z,98618.75
2022-09-12T21:29:34.604Z,98620.14
2022-09-12T21:35:11.207Z,98619.75
2022-09-12T21:40:57.465Z,98623.67
2022-09-12T21:46:17.116Z,98622.84
2022-09-12T21:51:57.834Z,98618.73
2022-09-12T21:57:20.327Z,98613.50
2022-09-12T22:03:28.203Z,98609.02
2022-09-12T22:09:10.548Z,98606.39
2022-09-12T22:14:29.770Z,98605.20
2022-09-12T22:20:00.970Z,98602.89
2022-09-12T22:26:18.419Z,98601.20
2022-09-12T22:32:11.219Z,98602.58
2022-09-12T22:38:32.895Z,98609.44
2022-09-12T22:44:25.627Z,98606.08
2022-09-12T22:50:21.479Z,98606.83
2022-09-12T22:56:20.295Z,98598.40
2022-09-12T23:02:29.781Z,98596.96
2022-09-12T23:07:52.769Z,98594.95
2022-09-12T23:13:20.705Z,98592.95
2022-09-12T23:18:52.176Z,98587.17
2022-09-12T23:24:04.900Z,98582.42
2022-09-12T23:29:35.695Z,98581.90
2022-09-12T23:34:59.625Z,98582.37
2022-09-12T23:40:37.018Z,98585.80
2022-09-12T23:46:19.802Z,98581.27
2022-09-12T23:52:11.148Z,98575.23
2022-09-12T23:58:34.113Z,98567.59
